Lobbes, Belgium
Current Conditions -  °F | °C
As of 5:20 AM on Thursday 29 Jan 2015 (Local Time) from EBCI Reporting Station
Scattered Clouds Scattered Clouds  
Wind Chill: 24°   Ceiling: Unl
Heat Index: 36°   Visibility: 6mi
Dew Point: 30°   Wind: 22mph
Humidity: 81%   Direction: 230°SW
Pressure: 29.41"   Gusts: NA
Location:  50.35°N, 4.27°E
Report Text: EBCI 290420Z 23019KT 9999 SCT030 02/M01 Q0996 NOSIG
Loading
Personal Weather Stations






























Interactive Weather Map New forecast layout! Learn more

10-Day Weather Forecast

Advertisements
Track Severe Weather on mobile